createdAt,value
2023-06-07T00:04:35.106Z,3.85
2023-06-07T00:09:37.062Z,3.25
2023-06-07T00:14:38.962Z,3.67
2023-06-07T00:19:40.831Z,3.50
2023-06-07T00:24:42.790Z,3.38
2023-06-07T00:29:44.739Z,3.38
2023-06-07T00:34:47.722Z,3.75
2023-06-07T00:39:49.644Z,3.40
2023-06-07T00:44:53.875Z,3.10
2023-06-07T00:49:55.921Z,3.42
2023-06-07T00:54:59.454Z,3.25
2023-06-07T01:00:03.560Z,3.75
2023-06-07T01:05:06.922Z,3.70
2023-06-07T01:10:09.355Z,3.38
2023-06-07T01:15:13.695Z,3.50
2023-06-07T01:20:20.852Z,3.40
2023-06-07T01:25:22.662Z,3.45
2023-06-07T01:30:32.591Z,3.50
2023-06-07T01:35:35.558Z,3.60
2023-06-07T01:40:38.511Z,3.15
2023-06-07T01:45:41.726Z,3.20
2023-06-07T01:50:43.686Z,3.78
2023-06-07T01:55:45.733Z,3.72
2023-06-07T02:00:59.685Z,3.65
2023-06-07T02:06:05.117Z,3.17
2023-06-07T02:11:08.228Z,3.25
2023-06-07T02:16:11.910Z,3.17
2023-06-07T02:21:16.256Z,3.22
2023-06-07T02:26:18.189Z,3.30
2023-06-07T02:31:21.640Z,3.22
2023-06-07T02:36:24.226Z,3.63
2023-06-07T02:41:26.872Z,2.83
2023-06-07T02:46:31.716Z,3.40
2023-06-07T02:51:33.729Z,3.28
2023-06-07T02:56:36.335Z,2.90
2023-06-07T03:01:39.344Z,3.65
2023-06-07T03:06:43.240Z,3.47
2023-06-07T03:11:53.251Z,3.13
2023-06-07T03:16:56.881Z,3.17
2023-06-07T03:21:58.954Z,3.05
2023-06-07T03:27:01.959Z,3.40
2023-06-07T03:32:06.537Z,3.15
2023-06-07T03:37:12.023Z,3.88
2023-06-07T03:42:15.064Z,3.25
2023-06-07T03:47:18.357Z,3.67
2023-06-07T03:52:20.880Z,3.30
2023-06-07T03:57:22.901Z,3.42
2023-06-07T04:02:27.019Z,3.47
2023-06-07T04:07:29.113Z,2.90
2023-06-07T04:12:31.057Z,3.20
2023-06-07T04:17:33.072Z,3.28
2023-06-07T04:22:36.664Z,3.55
2023-06-07T04:27:39.506Z,3.38
2023-06-07T04:32:44.551Z,3.20
2023-06-07T04:37:47.106Z,3.30
2023-06-07T04:43:05.950Z,3.80
2023-06-07T04:48:12.801Z,3.60
2023-06-07T04:53:19.084Z,3.47
2023-06-07T04:58:22.071Z,3.78
2023-06-07T05:03:26.027Z,3.50
2023-06-07T05:08:30.086Z,3.58
2023-06-07T05:13:32.031Z,3.47
2023-06-07T05:18:37.197Z,3.55
2023-06-07T05:23:39.504Z,3.50
2023-06-07T05:28:41.581Z,3.60
2023-06-07T05:33:43.815Z,2.97
2023-06-07T05:38:45.921Z,3.10
2023-06-07T05:43:48.016Z,3.03
2023-06-07T05:48:50.001Z,2.70
2023-06-07T05:53:55.784Z,2.80
2023-06-07T05:58:57.791Z,2.47
2023-06-07T06:03:59.831Z,3.20
2023-06-07T06:09:01.813Z,2.60
2023-06-07T06:14:03.675Z,3.22
2023-06-07T06:19:05.541Z,2.97
2023-06-07T06:24:07.864Z,3.30
2023-06-07T06:29:09.761Z,3.90
2023-06-07T06:34:11.680Z,4.28
2023-06-07T06:39:13.850Z,4.20
2023-06-07T06:44:15.981Z,4.30
2023-06-07T06:49:18.004Z,3.85
2023-06-07T06:54:19.889Z,4.07
2023-06-07T06:59:21.796Z,3.80
2023-06-07T07:04:23.928Z,3.80
2023-06-07T07:09:26.268Z,3.60
2023-06-07T07:14:28.206Z,5.07
2023-06-07T07:19:30.102Z,4.60
2023-06-07T07:24:31.931Z,4.82
2023-06-07T07:29:34.501Z,5.03
2023-06-07T07:34:37.553Z,4.18
2023-06-07T07:39:40.416Z,3.95
2023-06-07T07:44:42.253Z,4.18
2023-06-07T07:49:44.140Z,3.85
2023-06-07T07:54:46.870Z,4.05
2023-06-07T07:59:48.792Z,4.55
2023-06-07T08:04:50.710Z,5.15
2023-06-07T08:09:52.709Z,4.22
2023-06-07T08:14:54.590Z,4.53
2023-06-07T08:19:56.474Z,5.05
2023-06-07T08:24:58.322Z,4.78
2023-06-07T08:30:00.300Z,5.07
2023-06-07T08:35:02.293Z,4.78
2023-06-07T08:40:07.855Z,4.35
2023-06-07T08:45:10.656Z,5.18
2023-06-07T08:50:18.902Z,5.85
2023-06-07T08:55:23.233Z,4.50
2023-06-07T09:00:26.572Z,4.72
2023-06-07T09:05:28.453Z,4.80
2023-06-07T09:10:31.243Z,5.10
2023-06-07T09:15:35.320Z,4.53
2023-06-07T09:20:38.433Z,4.30
2023-06-07T09:25:45.614Z,4.10
2023-06-07T09:31:01.337Z,4.90
2023-06-07T09:36:08.133Z,4.32
2023-06-07T09:41:14.243Z,4.68
2023-06-07T09:46:16.616Z,4.63
2023-06-07T09:51:20.232Z,5.20
2023-06-07T09:56:23.139Z,4.90
2023-06-07T10:01:33.971Z,4.47
2023-06-07T10:06:42.737Z,4.43
2023-06-07T10:11:47.732Z,5.15
2023-06-07T10:17:12.326Z,5.18
2023-06-07T10:22:17.888Z,4.50
2023-06-07T10:27:24.139Z,5.93
2023-06-07T10:32:30.515Z,5.05
2023-06-07T10:37:34.726Z,4.88
2023-06-07T10:42:39.839Z,4.80
2023-06-07T10:47:45.207Z,4.75
2023-06-07T10:52:58.043Z,4.00
2023-06-07T10:58:00.872Z,4.47
2023-06-07T11:03:05.983Z,4.63
2023-06-07T11:08:30.123Z,4.60
2023-06-07T11:13:44.460Z,4.43
2023-06-07T11:18:54.453Z,4.57
2023-06-07T11:24:12.864Z,4.63
2023-06-07T11:29:16.598Z,4.78
2023-06-07T11:34:18.668Z,5.00
2023-06-07T11:39:21.545Z,4.43
2023-06-07T11:44:23.609Z,4.85
2023-06-07T11:49:25.574Z,4.07
2023-06-07T11:54:27.776Z,4.28
2023-06-07T11:59:30.972Z,4.70
2023-06-07T12:04:34.745Z,4.13
2023-06-07T12:09:42.870Z,4.10
2023-06-07T12:14:48.144Z,3.90
2023-06-07T12:19:51.142Z,4.03
2023-06-07T12:24:54.114Z,3.97
2023-06-07T12:29:56.389Z,4.18
2023-06-07T12:35:02.297Z,4.07
2023-06-07T12:40:06.553Z,3.90
2023-06-07T12:45:09.672Z,4.28
2023-06-07T12:50:15.805Z,3.60
2023-06-07T12:55:18.880Z,3.42
2023-06-07T13:00:20.905Z,3.97
2023-06-07T13:05:23.555Z,3.75
2023-06-07T13:10:25.843Z,4.07
2023-06-07T13:15:27.677Z,3.90
2023-06-07T13:20:29.594Z,3.63
2023-06-07T13:25:31.494Z,3.60
2023-06-07T13:30:33.613Z,3.40
2023-06-07T13:35:37.967Z,3.88
2023-06-07T13:40:40.005Z,3.75
2023-06-07T13:45:43.745Z,3.67
2023-06-07T13:50:45.870Z,3.90
2023-06-07T13:55:48.565Z,3.80
2023-06-07T14:00:50.441Z,3.55
2023-06-07T14:05:52.625Z,3.63
2023-06-07T14:10:56.774Z,3.47
2023-06-07T14:16:00.108Z,3.90
2023-06-07T14:21:02.002Z,4.07
2023-06-07T14:26:03.829Z,4.05
2023-06-07T14:31:05.681Z,4.35
2023-06-07T14:36:07.814Z,4.07
2023-06-07T14:41:10.331Z,4.07
2023-06-07T14:46:12.345Z,4.82
2023-06-07T14:51:15.888Z,4.47
2023-06-07T14:56:17.850Z,4.97
2023-06-07T15:01:19.992Z,5.72
2023-06-07T15:06:22.076Z,5.32
2023-06-07T15:11:23.939Z,5.15
2023-06-07T15:16:26.363Z,5.85
2023-06-07T15:21:28.304Z,5.70
2023-06-07T15:26:30.167Z,5.95
2023-06-07T15:31:32.109Z,5.28
2023-06-07T15:36:34.061Z,5.43
2023-06-07T15:41:36.338Z,4.63
2023-06-07T15:46:39.350Z,6.20
2023-06-07T15:51:41.448Z,5.55
2023-06-07T15:56:44.340Z,5.20
2023-06-07T16:01:46.362Z,5.57
2023-06-07T16:06:48.396Z,4.97
2023-06-07T16:11:51.384Z,4.93
2023-06-07T16:16:54.156Z,4.85
2023-06-07T16:21:59.271Z,4.90
2023-06-07T16:27:01.213Z,4.93
2023-06-07T16:32:03.379Z,4.93
2023-06-07T16:37:05.408Z,4.70
2023-06-07T16:42:07.429Z,5.70
2023-06-07T16:47:09.323Z,4.85
2023-06-07T16:52:14.281Z,5.13
2023-06-07T16:57:16.558Z,4.75
2023-06-07T17:02:18.493Z,5.65
2023-06-07T17:07:20.589Z,5.30
2023-06-07T17:12:22.491Z,5.60
2023-06-07T17:17:24.540Z,4.85
2023-06-07T17:22:27.513Z,4.90
2023-06-07T17:27:29.713Z,4.30
2023-06-07T17:32:31.743Z,4.70
2023-06-07T17:37:33.682Z,4.53
2023-06-07T17:42:37.687Z,6.00
2023-06-07T17:47:51.751Z,5.57
2023-06-07T17:52:54.529Z,5.60
2023-06-07T17:57:56.498Z,5.50
2023-06-07T18:02:58.505Z,6.10
2023-06-07T18:08:01.135Z,6.60
2023-06-07T18:13:04.468Z,5.97
2023-06-07T18:18:06.568Z,6.47
2023-06-07T18:23:11.525Z,6.45
2023-06-07T18:28:13.400Z,6.05
2023-06-07T18:33:16.847Z,6.70
2023-06-07T18:38:18.784Z,6.97
2023-06-07T18:43:21.146Z,6.22
2023-06-07T18:48:24.276Z,6.90
2023-06-07T18:53:27.300Z,6.15
2023-06-07T18:58:29.723Z,6.80
2023-06-07T19:03:32.302Z,6.75
2023-06-07T19:08:34.795Z,6.13
2023-06-07T19:13:36.927Z,6.43
2023-06-07T19:18:39.393Z,5.75
2023-06-07T19:23:41.256Z,6.47
2023-06-07T19:28:44.238Z,6.20
2023-06-07T19:33:46.168Z,6.28
2023-06-07T19:38:47.984Z,6.40
2023-06-07T19:43:49.888Z,7.07
2023-06-07T19:48:51.830Z,6.25
2023-06-07T19:53:54.324Z,7.25
2023-06-07T19:58:56.904Z,6.75
2023-06-07T20:03:58.892Z,6.57
2023-06-07T20:09:00.785Z,6.90
2023-06-07T20:14:02.602Z,5.95
2023-06-07T20:19:04.844Z,6.93
2023-06-07T20:24:06.881Z,6.32
2023-06-07T20:29:08.755Z,7.05
2023-06-07T20:34:11.147Z,6.32
2023-06-07T20:39:13.946Z,6.72
2023-06-07T20:44:15.987Z,7.88
2023-06-07T20:49:18.113Z,6.88
2023-06-07T20:54:23.237Z,6.93
2023-06-07T20:59:25.190Z,6.75
2023-06-07T21:04:27.217Z,6.80
2023-06-07T21:09:29.002Z,6.93
2023-06-07T21:14:31.175Z,6.18
2023-06-07T21:19:33.130Z,6.43
2023-06-07T21:24:35.101Z,6.47
2023-06-07T21:29:36.956Z,6.50
2023-06-07T21:34:38.880Z,6.35
2023-06-07T21:39:40.787Z,6.30
2023-06-07T21:44:42.650Z,5.90
2023-06-07T21:49:44.565Z,5.75
2023-06-07T21:54:47.992Z,5.68
2023-06-07T21:59:49.921Z,6.20
2023-06-07T22:04:51.869Z,6.03
2023-06-07T22:09:54.214Z,5.53
2023-06-07T22:15:05.222Z,5.45
2023-06-07T22:20:08.029Z,5.82
2023-06-07T22:25:10.269Z,6.18
2023-06-07T22:30:12.788Z,5.85
2023-06-07T22:35:14.872Z,6.22
2023-06-07T22:40:18.810Z,5.60
2023-06-07T22:45:23.154Z,5.53
2023-06-07T22:50:27.164Z,6.70
2023-06-07T22:55:29.205Z,6.20
2023-06-07T23:00:34.820Z,6.40
2023-06-07T23:05:38.075Z,6.75
2023-06-07T23:10:40.404Z,6.45
2023-06-07T23:15:43.589Z,5.97
2023-06-07T23:20:46.774Z,6.63
2023-06-07T23:25:48.808Z,5.93
2023-06-07T23:30:50.770Z,6.22
2023-06-07T23:35:52.704Z,6.53
2023-06-07T23:40:54.664Z,6.15
2023-06-07T23:45:56.574Z,6.88
2023-06-07T23:50:58.417Z,6.70
2023-06-07T23:56:00.902Z,6.93
